Time;durP1;ratioP1;P1;durP2;ratioP2;P2;SDS_P1;SDS_P2;PMS_P1;PMS_P2;Temp;Humidity;BMP_temperature;BMP_pressure;BME280_temperature;BME280_humidity;BME280_pressure;Samples;Min_cycle;Max_cycle;Signal;HPM_P1;HPM_P2
2022/08/30 00:03:20;;;;;;;2.53;1.70;;;23.00;66.20;;;;;;5034110;28;20068;-78
2022/08/30 00:05:46;;;;;;;2.60;1.67;;;23.00;66.10;;;;;;5032674;28;20030;-78
2022/08/30 00:08:12;;;;;;;3.15;1.85;;;23.00;66.10;;;;;;5033874;28;20389;-77
2022/08/30 00:10:40;;;;;;;3.53;2.17;;;23.00;66.10;;;;;;5015866;28;20477;-78
2022/08/30 00:13:07;;;;;;;3.03;1.67;;;23.00;66.10;;;;;;5016189;28;20029;-79
2022/08/30 00:15:33;;;;;;;2.95;1.90;;;23.00;66.10;;;;;;4999926;28;20112;-78
2022/08/30 00:17:59;;;;;;;3.25;1.80;;;23.00;66.00;;;;;;5033661;28;20028;-79
2022/08/30 00:20:28;;;;;;;2.95;1.73;;;23.00;66.00;;;;;;5016287;28;20029;-78
2022/08/30 00:22:54;;;;;;;2.47;1.70;;;23.00;66.00;;;;;;5033601;28;20549;-78
2022/08/30 00:25:21;;;;;;;3.15;1.70;;;23.00;66.00;;;;;;5033604;28;20109;-78
2022/08/30 00:27:47;;;;;;;2.42;1.70;;;23.00;66.00;;;;;;5015955;28;20035;-78
2022/08/30 00:30:14;;;;;;;2.35;1.67;;;23.00;66.10;;;;;;5015573;28;20108;-78
2022/08/30 00:32:40;;;;;;;2.50;1.80;;;23.00;66.00;;;;;;5033450;28;20094;-78
2022/08/30 00:35:08;;;;;;;2.20;1.65;;;23.00;66.00;;;;;;5015757;28;20493;-78
2022/08/30 00:37:34;;;;;;;3.10;1.83;;;23.00;66.10;;;;;;5033313;28;20033;-78
2022/08/30 00:40:00;;;;;;;2.92;1.80;;;23.00;66.10;;;;;;5015172;28;20520;-79
2022/08/30 00:42:26;;;;;;;2.40;1.70;;;23.00;66.00;;;;;;5015649;28;20079;-78
2022/08/30 00:44:52;;;;;;;2.83;1.90;;;23.00;66.70;;;;;;5033430;28;20041;-78
2022/08/30 00:47:18;;;;;;;2.35;1.80;;;23.00;66.10;;;;;;5033192;28;20110;-78
2022/08/30 00:49:48;;;;;;;3.50;2.08;;;23.00;66.20;;;;;;5015139;28;20029;-78
2022/08/30 00:52:15;;;;;;;4.20;1.52;;;23.00;66.10;;;;;;5033083;28;20136;-78
2022/08/30 00:54:44;;;;;;;3.03;1.80;;;23.00;66.20;;;;;;5031987;28;20037;-78
2022/08/30 00:57:12;;;;;;;2.78;1.80;;;23.00;66.20;;;;;;5032646;28;20058;-78
2022/08/30 00:59:40;;;;;;;2.47;1.70;;;23.00;66.20;;;;;;5023057;23;20485;-73
2022/08/30 01:02:06;;;;;;;2.15;1.50;;;23.00;66.20;;;;;;5032768;28;20065;-73
2022/08/30 01:04:33;;;;;;;1.77;1.52;;;23.00;66.20;;;;;;5032863;28;20071;-74
2022/08/30 01:06:59;;;;;;;2.35;1.70;;;23.00;66.80;;;;;;5032746;28;20029;-73
2022/08/30 01:09:25;;;;;;;3.25;1.70;;;23.00;66.20;;;;;;5018235;28;20028;-74
2022/08/30 01:11:52;;;;;;;2.45;1.55;;;23.00;66.20;;;;;;5013019;28;20558;-74
2022/08/30 01:14:20;;;;;;;2.05;1.63;;;23.00;66.20;;;;;;5012909;28;20030;-74
2022/08/30 01:16:47;;;;;;;2.75;1.58;;;23.00;66.30;;;;;;5012785;28;20022;-74
2022/08/30 01:19:35;;;;;;;2.17;1.42;;;23.00;66.20;;;;;;4994915;28;20129;-74
2022/08/30 01:22:27;;;;;;;3.60;1.70;;;23.00;66.30;;;;;;5012779;28;20088;-74
2022/08/30 01:24:56;;;;;;;2.88;1.58;;;23.00;66.30;;;;;;4984459;28;20451;-74
2022/08/30 01:27:23;;;;;;;2.65;1.63;;;22.90;66.20;;;;;;5012778;28;20041;-73
2022/08/30 01:29:50;;;;;;;2.45;1.63;;;22.90;66.20;;;;;;5012221;28;20075;-74
2022/08/30 01:32:22;;;;;;;1.92;1.40;;;23.00;66.30;;;;;;4978965;28;20080;-74
2022/08/30 01:34:48;;;;;;;3.10;1.70;;;23.00;66.30;;;;;;5012540;28;20087;-74
2022/08/30 01:37:23;;;;;;;2.35;1.70;;;23.00;66.30;;;;;;4994884;28;20037;-74
2022/08/30 01:39:49;;;;;;;2.70;1.77;;;22.90;66.20;;;;;;5012375;28;20057;-73
2022/08/30 01:42:18;;;;;;;2.30;1.60;;;23.00;66.30;;;;;;5012354;28;20069;-74
2022/08/30 01:44:45;;;;;;;2.00;1.40;;;23.00;66.30;;;;;;5012479;28;20026;-74
2022/08/30 01:47:12;;;;;;;4.70;1.75;;;23.00;66.30;;;;;;4978877;28;20049;-73
2022/08/30 01:49:39;;;;;;;2.65;1.80;;;22.90;66.20;;;;;;5012018;28;20470;-73
2022/08/30 01:52:06;;;;;;;2.92;1.70;;;23.00;66.20;;;;;;5012648;28;20025;-74
2022/08/30 01:54:37;;;;;;;2.83;1.70;;;22.90;66.20;;;;;;4994897;28;20041;-74
2022/08/30 01:57:03;;;;;;;3.75;1.95;;;23.00;66.20;;;;;;5012235;28;20038;-73
2022/08/30 01:59:29;;;;;;;2.40;1.75;;;22.90;66.20;;;;;;4994197;28;20034;-73
2022/08/30 02:01:55;;;;;;;1.95;1.52;;;23.00;66.20;;;;;;4994517;28;20030;-74
2022/08/30 02:04:21;;;;;;;2.40;1.80;;;23.00;66.20;;;;;;5012139;28;20351;-75
2022/08/30 02:06:47;;;;;;;3.70;1.80;;;22.90;66.10;;;;;;5012032;28;20108;-75
2022/08/30 02:09:13;;;;;;;3.47;1.70;;;23.00;66.20;;;;;;4994194;28;20127;-74
2022/08/30 02:11:39;;;;;;;2.45;1.70;;;23.00;66.10;;;;;;5012098;28;20026;-74
2022/08/30 02:14:05;;;;;;;2.10;1.30;;;22.90;66.10;;;;;;4994633;28;20038;-74
2022/08/30 02:16:32;;;;;;;2.90;1.42;;;23.00;66.10;;;;;;5012030;28;20041;-74
2022/08/30 02:18:58;;;;;;;1.70;1.30;;;22.90;66.00;;;;;;5011547;28;20026;-73
2022/08/30 02:21:26;;;;;;;2.65;1.70;;;23.00;66.10;;;;;;5011800;28;20037;-73
2022/08/30 02:23:52;;;;;;;4.18;1.42;;;23.00;66.10;;;;;;5011986;28;20057;-74
2022/08/30 02:26:19;;;;;;;2.50;1.50;;;23.00;66.10;;;;;;5011947;28;20030;-74
2022/08/30 02:28:45;;;;;;;2.83;1.77;;;23.00;66.60;;;;;;4994113;28;20026;-74
2022/08/30 02:31:11;;;;;;;2.58;1.70;;;23.00;66.00;;;;;;5012024;28;20358;-74
2022/08/30 02:33:37;;;;;;;2.67;1.70;;;23.00;66.10;;;;;;5011858;28;20026;-74
2022/08/30 02:36:05;;;;;;;2.38;1.50;;;22.90;66.10;;;;;;5011807;28;20029;-74
2022/08/30 02:38:31;;;;;;;2.63;1.65;;;23.00;66.10;;;;;;5011569;28;20088;-75
2022/08/30 02:40:57;;;;;;;2.13;1.65;;;22.90;66.10;;;;;;5011740;28;20036;-74
2022/08/30 02:43:23;;;;;;;2.58;1.67;;;23.00;66.20;;;;;;4994331;28;20030;-74
2022/08/30 02:45:49;;;;;;;2.17;1.58;;;22.90;66.10;;;;;;5011722;28;20026;-74
2022/08/30 02:48:15;;;;;;;2.25;1.58;;;23.00;66.20;;;;;;5011579;28;20018;-74
2022/08/30 02:50:46;;;;;;;2.78;1.55;;;23.00;66.20;;;;;;5011862;28;20127;-73
2022/08/30 02:53:12;;;;;;;3.20;1.90;;;22.90;66.10;;;;;;5011885;28;20065;-74
2022/08/30 02:55:38;;;;;;;2.75;1.70;;;22.90;66.10;;;;;;5011754;28;20058;-74
2022/08/30 02:58:04;;;;;;;1.98;1.45;;;22.90;66.20;;;;;;5011466;28;20030;-74
2022/08/30 03:00:31;;;;;;;2.58;1.67;;;23.00;66.20;;;;;;5011603;28;20050;-74
2022/08/30 03:02:57;;;;;;;2.17;1.60;;;23.00;66.20;;;;;;4993958;28;20080;-73
2022/08/30 03:05:23;;;;;;;2.97;1.88;;;22.90;66.10;;;;;;5011521;28;20025;-74
2022/08/30 03:07:49;;;;;;;2.30;1.63;;;22.90;66.20;;;;;;5011587;28;20030;-74
2022/08/30 03:10:16;;;;;;;4.20;1.88;;;22.90;66.20;;;;;;5011247;28;20018;-74
2022/08/30 03:12:42;;;;;;;2.72;1.75;;;22.90;66.20;;;;;;5011884;28;20493;-74
2022/08/30 03:15:13;;;;;;;3.22;1.75;;;22.90;66.20;;;;;;5011474;28;20467;-74
2022/08/30 03:17:40;;;;;;;1.77;1.45;;;22.90;66.20;;;;;;5011476;28;20030;-74
2022/08/30 03:20:06;;;;;;;2.35;1.60;;;22.90;66.20;;;;;;5010989;28;20065;-74
2022/08/30 03:22:32;;;;;;;2.00;1.52;;;22.90;66.20;;;;;;5014110;28;20116;-74
2022/08/30 03:25:00;;;;;;;3.47;1.60;;;22.90;66.20;;;;;;5015243;28;20109;-74
2022/08/30 03:27:26;;;;;;;2.85;1.85;;;22.90;66.20;;;;;;4997380;28;20038;-74
2022/08/30 03:29:52;;;;;;;2.58;1.63;;;22.90;66.20;;;;;;5014373;28;20026;-74
2022/08/30 03:32:19;;;;;;;2.00;1.40;;;22.90;66.70;;;;;;5015462;28;20383;-74
2022/08/30 03:34:44;;;;;;;2.20;1.50;;;22.90;66.20;;;;;;5014722;28;20037;-74
2022/08/30 03:37:11;;;;;;;2.58;1.70;;;22.90;66.20;;;;;;5014672;28;20033;-73
2022/08/30 03:39:37;;;;;;;2.47;1.67;;;22.90;66.20;;;;;;5014291;28;20041;-74
2022/08/30 03:42:03;;;;;;;3.45;1.70;;;22.90;66.20;;;;;;5014515;28;20398;-74
2022/08/30 03:44:29;;;;;;;3.20;1.92;;;22.90;66.20;;;;;;5014518;28;20156;-74
2022/08/30 03:46:55;;;;;;;1.90;1.60;;;22.90;66.20;;;;;;4997056;28;20105;-74
2022/08/30 03:49:21;;;;;;;2.33;1.80;;;22.90;66.20;;;;;;5014056;28;20083;-74
2022/08/30 03:51:47;;;;;;;2.65;1.92;;;22.90;66.20;;;;;;4997022;28;20117;-74
2022/08/30 03:54:13;;;;;;;2.65;1.80;;;22.90;66.20;;;;;;5014504;28;20033;-75
2022/08/30 03:56:40;;;;;;;2.33;1.58;;;22.90;66.20;;;;;;5014850;28;20434;-74
2022/08/30 03:59:06;;;;;;;1.70;1.35;;;22.90;66.20;;;;;;5013681;28;20045;-74
2022/08/30 04:01:32;;;;;;;2.42;1.70;;;22.90;66.10;;;;;;5014231;28;20045;-73
2022/08/30 04:03:57;;;;;;;2.22;1.60;;;22.90;66.10;;;;;;5014157;28;20034;-74
2022/08/30 04:06:24;;;;;;;2.63;1.70;;;22.90;66.10;;;;;;5014145;28;20025;-74
2022/08/30 04:08:50;;;;;;;2.42;1.60;;;22.90;66.10;;;;;;5013990;28;20470;-73
2022/08/30 04:11:16;;;;;;;3.25;1.90;;;22.90;66.00;;;;;;5014062;28;20457;-74
2022/08/30 04:13:45;;;;;;;2.92;1.90;;;22.90;66.00;;;;;;5014046;28;20125;-74
2022/08/30 04:16:11;;;;;;;2.00;1.67;;;22.90;66.00;;;;;;4996511;28;20034;-74
2022/08/30 04:18:37;;;;;;;2.65;1.92;;;22.90;66.00;;;;;;5013544;28;20033;-74
2022/08/30 04:21:03;;;;;;;3.03;1.80;;;22.90;66.00;;;;;;4996337;28;20037;-74
2022/08/30 04:23:29;;;;;;;2.38;1.48;;;22.90;66.00;;;;;;5013874;28;20030;-75
2022/08/30 04:25:55;;;;;;;2.53;1.70;;;22.90;66.00;;;;;;5013762;28;20030;-75
2022/08/30 04:28:22;;;;;;;2.88;2.10;;;22.90;66.00;;;;;;5013513;28;20092;-75
2022/08/30 04:30:48;;;;;;;2.40;1.45;;;22.90;66.00;;;;;;5013596;28;20017;-75
2022/08/30 04:33:14;;;;;;;2.58;1.80;;;22.90;66.00;;;;;;5013589;28;20026;-75
2022/08/30 04:35:44;;;;;;;2.42;1.70;;;22.90;66.00;;;;;;5013759;28;20057;-75
2022/08/30 04:38:12;;;;;;;2.40;1.50;;;22.90;66.00;;;;;;5013422;28;20546;-75
2022/08/30 04:40:41;;;;;;;3.05;1.90;;;22.90;66.10;;;;;;4995896;28;20038;-75
2022/08/30 04:43:07;;;;;;;2.67;1.73;;;22.90;66.00;;;;;;4995900;28;20033;-75
2022/08/30 04:45:33;;;;;;;2.58;1.80;;;22.90;66.00;;;;;;5013482;28;20025;-75
2022/08/30 04:47:59;;;;;;;2.42;1.77;;;22.90;66.00;;;;;;4995767;28;20421;-74
2022/08/30 04:50:25;;;;;;;2.60;1.75;;;22.90;66.00;;;;;;5012986;28;20462;-75
2022/08/30 04:52:51;;;;;;;3.08;1.90;;;22.90;66.00;;;;;;5013336;28;20034;-74
2022/08/30 04:55:16;;;;;;;2.67;1.80;;;22.90;66.10;;;;;;5013406;28;20459;-74
2022/08/30 04:57:42;;;;;;;2.20;1.70;;;22.90;66.10;;;;;;5013070;28;20136;-74
2022/08/30 05:00:11;;;;;;;2.33;1.75;;;22.90;66.10;;;;;;5012745;28;20045;-74
2022/08/30 05:02:39;;;;;;;2.25;1.70;;;22.90;66.10;;;;;;5015468;28;20029;-74
2022/08/30 05:07:49;;;;;;;2.28;1.65;;;22.90;66.70;;;;;;5014147;28;20083;-74
2022/08/30 05:10:15;;;;;;;3.05;2.05;;;22.90;66.10;;;;;;4997867;28;20394;-74
2022/08/30 05:12:42;;;;;;;3.03;1.85;;;22.90;66.10;;;;;;5032592;28;20029;-75
2022/08/30 05:15:09;;;;;;;2.67;1.98;;;22.90;66.10;;;;;;5032135;28;20034;-74
2022/08/30 05:17:37;;;;;;;2.70;1.83;;;22.90;66.10;;;;;;5032671;28;20396;-74
2022/08/30 05:20:05;;;;;;;2.00;1.70;;;22.90;66.10;;;;;;5032220;28;20065;-75
2022/08/30 05:22:31;;;;;;;3.60;2.15;;;22.80;66.10;;;;;;5032263;28;20052;-75
2022/08/30 05:24:58;;;;;;;3.33;2.00;;;22.90;66.10;;;;;;5032401;28;20026;-76
2022/08/30 05:27:23;;;;;;;2.13;1.73;;;22.90;66.20;;;;;;5032301;28;20032;-75
2022/08/30 05:29:49;;;;;;;3.53;2.20;;;22.90;66.10;;;;;;5014393;28;20029;-76
2022/08/30 05:32:15;;;;;;;2.60;1.90;;;22.90;66.10;;;;;;5032207;28;20061;-75
2022/08/30 05:34:41;;;;;;;2.40;1.80;;;22.80;66.10;;;;;;5014791;28;20033;-75
2022/08/30 05:37:06;;;;;;;2.70;1.92;;;22.90;66.10;;;;;;5014497;28;20036;-75
2022/08/30 05:39:32;;;;;;;2.90;2.15;;;22.80;66.10;;;;;;5031916;28;20029;-75
2022/08/30 05:41:59;;;;;;;3.65;2.20;;;22.90;66.20;;;;;;5032039;28;20033;-75
2022/08/30 05:44:25;;;;;;;2.22;1.90;;;22.90;66.10;;;;;;5031711;28;20393;-75
2022/08/30 05:46:50;;;;;;;2.83;2.00;;;22.90;66.10;;;;;;5031736;28;20104;-74
2022/08/30 05:49:16;;;;;;;2.88;2.20;;;22.90;66.20;;;;;;5031384;28;20025;-74
2022/08/30 05:51:42;;;;;;;5.30;2.28;;;22.90;66.10;;;;;;5014731;28;20045;-74
2022/08/30 05:54:10;;;;;;;5.28;2.35;;;22.90;66.20;;;;;;5032081;28;20029;-75
2022/08/30 05:56:39;;;;;;;3.85;2.28;;;22.80;66.10;;;;;;5032036;28;20120;-74
2022/08/30 05:59:06;;;;;;;4.35;2.70;;;22.80;66.10;;;;;;5031363;28;20429;-75
2022/08/30 06:01:34;;;;;;;3.90;2.47;;;22.80;66.00;;;;;;5031832;28;20132;-75
2022/08/30 06:04:02;;;;;;;3.78;2.42;;;22.90;66.10;;;;;;5031703;28;20025;-75
2022/08/30 06:06:30;;;;;;;3.72;2.40;;;22.90;66.00;;;;;;5014605;28;20029;-74
2022/08/30 06:08:56;;;;;;;3.72;2.53;;;22.90;66.00;;;;;;5031271;28;20025;-74
2022/08/30 06:11:24;;;;;;;4.47;2.55;;;22.90;66.00;;;;;;5014160;28;20513;-75
2022/08/30 06:13:51;;;;;;;3.20;2.33;;;22.90;66.00;;;;;;5031612;28;20033;-74
2022/08/30 06:16:19;;;;;;;4.05;2.60;;;22.90;66.00;;;;;;5031781;28;20037;-74
2022/08/30 06:18:46;;;;;;;3.95;2.47;;;22.90;66.00;;;;;;5013586;28;20375;-75
2022/08/30 06:21:19;;;;;;;3.80;2.50;;;22.90;66.00;;;;;;5013951;28;20041;-74
2022/08/30 06:23:45;;;;;;;2.90;2.20;;;22.90;66.00;;;;;;5031585;28;20108;-74
2022/08/30 06:26:11;;;;;;;2.88;2.20;;;22.90;65.90;;;;;;5031636;28;20504;-74
2022/08/30 06:28:38;;;;;;;4.25;2.47;;;22.90;66.00;;;;;;5031146;28;20017;-74
2022/08/30 06:31:11;;;;;;;3.72;2.78;;;22.90;65.90;;;;;;5031600;28;20026;-73
2022/08/30 06:33:37;;;;;;;4.18;2.47;;;22.90;65.90;;;;;;5031578;28;20076;-74
2022/08/30 06:36:09;;;;;;;3.38;2.22;;;22.90;65.90;;;;;;5031877;28;20022;-74
2022/08/30 06:38:35;;;;;;;3.70;2.30;;;22.90;66.00;;;;;;5031098;28;20021;-75
2022/08/30 06:41:09;;;;;;;4.47;2.58;;;22.90;66.00;;;;;;5013725;28;20498;-74
2022/08/30 06:43:36;;;;;;;3.75;2.42;;;22.90;66.50;;;;;;5013918;28;20069;-74
2022/08/30 06:46:10;;;;;;;3.95;2.38;;;22.90;66.10;;;;;;5013929;28;20175;-75
2022/08/30 06:48:36;;;;;;;3.40;2.45;;;22.90;66.00;;;;;;5013423;28;20056;-75
2022/08/30 06:51:02;;;;;;;2.92;2.33;;;22.90;66.10;;;;;;5013780;28;20026;-74
2022/08/30 06:53:29;;;;;;;3.47;2.30;;;22.90;66.10;;;;;;5013616;28;20029;-75
2022/08/30 06:56:06;;;;;;;4.47;2.53;;;22.90;66.10;;;;;;5031851;28;20025;-75
2022/08/30 06:58:33;;;;;;;3.15;2.47;;;22.90;66.60;;;;;;5016959;28;20404;-75
2022/08/30 07:00:59;;;;;;;4.20;2.50;;;22.90;66.00;;;;;;5035259;28;20083;-74
2022/08/30 07:03:27;;;;;;;4.30;2.50;;;22.90;66.10;;;;;;5035087;28;20420;-75
2022/08/30 07:05:54;;;;;;;3.88;2.53;;;22.90;66.10;;;;;;5035120;28;20058;-75
2022/08/30 07:08:21;;;;;;;4.35;2.53;;;22.90;66.10;;;;;;5017034;28;20420;-75
2022/08/30 07:10:49;;;;;;;3.72;2.58;;;22.90;66.10;;;;;;5017249;28;20029;-75
2022/08/30 07:13:15;;;;;;;3.92;2.67;;;22.90;66.10;;;;;;5034939;28;20389;-75
2022/08/30 07:15:43;;;;;;;4.45;2.85;;;22.80;66.10;;;;;;5034616;28;20033;-75
2022/08/30 07:20:55;;;;;;;4.40;2.72;;;22.90;66.10;;;;;;5034765;28;20025;-75
2022/08/30 07:23:21;;;;;;;3.65;2.40;;;22.80;66.10;;;;;;5016811;28;20034;-75
2022/08/30 07:25:47;;;;;;;4.25;2.70;;;22.80;66.10;;;;;;5016975;28;20075;-75
2022/08/30 07:28:12;;;;;;;3.85;2.58;;;22.90;66.20;;;;;;5034580;28;20025;-75
2022/08/30 07:30:40;;;;;;;4.00;2.78;;;22.80;66.10;;;;;;5016710;28;20087;-75
2022/08/30 07:33:06;;;;;;;3.95;2.40;;;22.90;66.20;;;;;;5034581;28;20030;-75
2022/08/30 07:35:32;;;;;;;3.05;2.20;;;22.80;66.10;;;;;;5034721;28;20076;-75
2022/08/30 07:37:58;;;;;;;4.25;2.45;;;22.90;66.10;;;;;;5000871;28;20029;-75
2022/08/30 07:40:24;;;;;;;4.22;2.85;;;22.80;66.10;;;;;;5035122;28;20053;-75
2022/08/30 07:42:50;;;;;;;3.85;2.72;;;22.80;66.10;;;;;;5035007;28;20513;-75
2022/08/30 07:45:17;;;;;;;3.63;2.40;;;22.90;66.10;;;;;;5034263;28;20108;-75
2022/08/30 07:47:43;;;;;;;3.92;2.63;;;22.90;66.10;;;;;;5016587;28;20041;-75
2022/08/30 07:50:10;;;;;;;4.47;2.63;;;22.80;66.10;;;;;;5033867;28;20021;-75
2022/08/30 07:52:36;;;;;;;4.13;2.40;;;22.90;66.10;;;;;;5034027;28;20036;-75
2022/08/30 07:55:02;;;;;;;4.50;2.72;;;22.80;66.10;;;;;;5034042;28;20033;-75
2022/08/30 07:57:32;;;;;;;3.83;2.60;;;22.90;66.20;;;;;;5016485;28;20503;-75
2022/08/30 07:59:58;;;;;;;3.28;2.50;;;22.90;66.10;;;;;;4999862;28;20033;-75
2022/08/30 08:02:24;;;;;;;3.45;2.53;;;22.90;66.00;;;;;;5033956;28;20034;-76
2022/08/30 08:04:50;;;;;;;4.35;2.50;;;22.90;66.00;;;;;;5016203;28;20029;-76
2022/08/30 08:07:16;;;;;;;4.15;2.30;;;22.90;66.00;;;;;;5016012;28;20021;-74
2022/08/30 08:09:41;;;;;;;3.85;2.40;;;22.90;65.90;;;;;;5033412;28;20096;-75
2022/08/30 08:12:08;;;;;;;3.78;2.70;;;22.90;65.90;;;;;;5033904;28;20481;-75
2022/08/30 08:14:34;;;;;;;3.53;2.58;;;22.90;65.90;;;;;;5033674;28;20068;-74
2022/08/30 08:17:01;;;;;;;3.42;2.40;;;22.90;65.90;;;;;;5033868;28;20029;-75
2022/08/30 08:19:26;;;;;;;3.17;2.30;;;22.90;65.80;;;;;;4999323;28;20040;-76
2022/08/30 08:21:58;;;;;;;4.25;2.67;;;22.90;65.80;;;;;;5033585;28;20026;-75
2022/08/30 08:24:27;;;;;;;4.65;2.72;;;22.90;65.80;;;;;;5033115;28;20030;-75
2022/08/30 08:26:53;;;;;;;3.75;2.60;;;22.90;65.80;;;;;;5033592;28;20040;-75
2022/08/30 08:29:19;;;;;;;3.88;2.58;;;22.90;65.80;;;;;;5015432;28;20029;-75
2022/08/30 08:31:45;;;;;;;3.33;2.40;;;22.90;65.80;;;;;;5033462;28;20033;-75
2022/08/30 08:34:12;;;;;;;4.55;2.50;;;22.90;65.80;;;;;;5015801;28;20072;-75
2022/08/30 08:36:38;;;;;;;3.78;2.58;;;22.90;65.80;;;;;;5033382;28;20033;-75
2022/08/30 08:39:06;;;;;;;3.47;2.50;;;22.90;65.80;;;;;;5033119;28;20025;-76
2022/08/30 08:41:38;;;;;;;4.13;2.45;;;22.90;65.80;;;;;;5033227;28;20037;-75
2022/08/30 08:44:38;;;;;;;3.92;2.40;;;22.90;65.80;;;;;;5033234;28;20083;-75
2022/08/30 08:47:11;;;;;;;;;;;22.90;65.80;;;;;;5016029;28;20068;-75
2022/08/30 08:49:39;;;;;;;4.13;2.53;;;22.90;65.80;;;;;;4982530;28;20365;-75
2022/08/30 08:54:58;;;;;;;;;;;22.90;65.90;;;;;;5033321;28;20034;-75
2022/08/30 08:57:24;;;;;;;4.35;2.35;;;22.90;65.90;;;;;;5033096;28;19917;-75
2022/08/30 08:59:53;;;;;;;5.10;2.78;;;22.90;65.90;;;;;;5014818;28;20041;-75
2022/08/30 09:02:28;;;;;;;4.05;2.50;;;22.90;65.90;;;;;;5015301;28;20187;-75
2022/08/30 09:04:58;;;;;;;3.17;2.35;;;22.90;66.00;;;;;;5032926;28;20021;-75
2022/08/30 09:07:28;;;;;;;3.47;2.58;;;22.90;66.00;;;;;;4998827;28;20082;-75
2022/08/30 09:09:56;;;;;;;4.10;2.60;;;22.90;66.00;;;;;;5032619;28;20489;-75
2022/08/30 09:12:22;;;;;;;3.08;2.15;;;22.90;66.10;;;;;;5032661;28;20108;-75
2022/08/30 09:14:53;;;;;;;3.33;2.30;;;22.90;66.00;;;;;;5032665;28;20514;-75
2022/08/30 09:17:20;;;;;;;3.42;2.50;;;22.90;66.00;;;;;;5015018;28;20079;-75
2022/08/30 09:19:52;;;;;;;2.50;2.05;;;22.90;66.10;;;;;;5031479;28;20079;-76
2022/08/30 09:22:41;;;;;;;3.65;2.38;;;22.80;66.00;;;;;;5032588;28;20041;-76
2022/08/30 09:25:16;;;;;;;3.63;2.60;;;22.90;66.10;;;;;;5032477;28;20479;-75
2022/08/30 09:27:45;;;;;;;4.05;2.47;;;22.80;66.00;;;;;;5032360;28;20025;-76
2022/08/30 09:30:21;;;;;;;2.77;2.03;;;22.80;66.00;;;;;;4998096;28;20151;-75
2022/08/30 09:33:06;;;;;;;3.58;2.42;;;22.90;66.10;;;;;;5014691;28;20344;-75
2022/08/30 09:35:46;;;;;;;3.70;2.53;;;22.90;66.10;;;;;;5014711;28;20417;-75
2022/08/30 09:38:34;;;;;;;3.72;2.40;;;22.90;66.10;;;;;;4998557;28;20388;-75
2022/08/30 09:41:29;;;;;;;3.75;2.40;;;22.90;66.10;;;;;;5014545;28;20041;-75
2022/08/30 09:44:29;;;;;;;3.85;2.53;;;22.90;66.10;;;;;;5032158;28;20087;-75
2022/08/30 09:47:00;;;;;;;4.20;2.55;;;22.90;66.10;;;;;;5009220;28;20464;-76
2022/08/30 09:49:34;;;;;;;4.22;2.67;;;22.80;66.00;;;;;;5014060;28;20361;-76
2022/08/30 09:52:09;;;;;;;3.78;2.45;;;22.80;66.10;;;;;;5014511;28;20107;-77
2022/08/30 09:54:45;;;;;;;3.88;2.20;;;22.80;66.10;;;;;;5014524;28;20065;-76
2022/08/30 09:57:29;;;;;;;3.78;2.60;;;22.90;66.10;;;;;;5014348;28;20133;-76
2022/08/30 10:00:12;;;;;;;3.72;2.50;;;22.90;66.10;;;;;;5031468;28;20040;-75
2022/08/30 10:02:52;;;;;;;3.70;2.50;;;22.90;66.10;;;;;;5031758;28;20030;-75
2022/08/30 10:05:43;;;;;;;11.55;2.88;;;22.90;66.00;;;;;;5031466;28;20029;-75
2022/08/30 10:08:17;;;;;;;14.77;3.28;;;22.90;66.20;;;;;;5010964;28;21166;-78
2022/08/30 10:10:46;;;;;;;9.15;2.30;;;22.90;66.50;;;;;;5024275;28;20051;-78
2022/08/30 10:13:21;;;;;;;14.05;2.90;;;22.90;66.60;;;;;;5011766;28;20033;-72
2022/08/30 10:15:54;;;;;;;17.88;3.95;;;23.00;66.80;;;;;;4992268;28;20100;-71
2022/08/30 10:18:22;;;;;;;7.80;2.83;;;23.00;66.90;;;;;;5011200;28;20052;-71
2022/08/30 10:21:20;;;;;;;9.07;2.90;;;23.00;66.60;;;;;;5029353;28;20033;-71
2022/08/30 10:24:06;;;;;;;11.18;2.80;;;22.90;66.60;;;;;;5028388;28;20030;-69
2022/08/30 10:26:37;;;;;;;8.13;3.20;;;22.90;66.40;;;;;;5016633;28;20030;-71
2022/08/30 10:29:11;;;;;;;4.53;2.38;;;22.90;66.40;;;;;;5011161;28;20064;-71
2022/08/30 10:31:45;;;;;;;7.20;3.00;;;22.90;66.30;;;;;;5034681;28;20029;-70
2022/08/30 10:34:31;;;;;;;6.32;2.80;;;22.90;66.40;;;;;;5035639;28;20067;-70
2022/08/30 10:37:07;;;;;;;8.70;2.90;;;22.90;66.40;;;;;;5035492;28;20545;-70
2022/08/30 10:39:43;;;;;;;8.98;3.83;;;22.90;66.30;;;;;;5035099;28;20048;-70
2022/08/30 10:42:20;;;;;;;6.68;3.10;;;22.80;66.20;;;;;;5035061;28;20025;-71
2022/08/30 10:44:59;;;;;;;4.28;3.03;;;22.90;66.10;;;;;;5035556;28;20029;-71
2022/08/30 10:47:38;;;;;;;10.85;3.63;;;22.90;66.10;;;;;;5035350;28;20029;-72
2022/08/30 10:50:19;;;;;;;8.77;3.47;;;22.80;66.00;;;;;;5034664;28;20048;-71
2022/08/30 10:52:49;;;;;;;10.07;3.25;;;22.90;66.00;;;;;;5014866;28;20032;-71
2022/08/30 10:55:20;;;;;;;13.05;4.03;;;23.00;65.80;;;;;;5035257;28;20025;-71
2022/08/30 10:57:47;;;;;;;8.02;3.15;;;23.00;65.70;;;;;;5034720;28;20036;-71
2022/08/30 11:00:23;;;;;;;12.70;2.95;;;23.00;65.30;;;;;;5017212;28;20069;-71
2022/08/30 11:03:43;;;;;;;25.13;13.68;;;23.00;64.60;;;;;;5035011;28;20025;-71
2022/08/30 11:06:17;;;;;;;17.92;9.80;;;23.00;64.70;;;;;;5026941;28;20044;-77
2022/08/30 11:08:58;;;;;;;14.45;7.85;;;23.00;64.30;;;;;;5034634;28;20025;-77
2022/08/30 11:11:30;;;;;;;14.65;9.18;;;23.00;64.40;;;;;;5035014;28;20037;-77
2022/08/30 11:13:56;;;;;;;15.98;8.32;;;23.00;64.10;;;;;;5014605;28;20056;-77
2022/08/30 11:16:40;;;;;;;20.13;8.93;;;23.00;64.60;;;;;;5015103;28;20072;-78
2022/08/30 11:19:20;;;;;;;16.10;8.80;;;23.00;64.40;;;;;;5014722;28;20032;-77
2022/08/30 11:21:47;;;;;;;15.68;7.65;;;23.00;64.30;;;;;;5014985;28;20030;-77
2022/08/30 11:24:23;;;;;;;13.77;8.02;;;23.00;64.90;;;;;;5014799;28;20440;-77
2022/08/30 11:26:56;;;;;;;12.77;7.47;;;23.00;64.30;;;;;;5030585;28;20397;-77
2022/08/30 11:29:25;;;;;;;13.27;7.05;;;23.00;64.00;;;;;;4997125;28;20030;-78
2022/08/30 11:31:52;;;;;;;13.57;7.22;;;23.10;64.50;;;;;;5014838;28;20163;-77
2022/08/30 11:34:46;;;;;;;12.52;7.15;;;23.00;64.10;;;;;;5030011;28;20112;-77
2022/08/30 11:37:34;;;;;;;14.98;6.40;;;23.00;63.80;;;;;;5014666;28;20048;-77
2022/08/30 11:40:09;;;;;;;11.38;6.28;;;23.00;64.10;;;;;;5014394;28;20576;-77
2022/08/30 11:42:37;;;;;;;11.50;5.63;;;23.00;64.20;;;;;;5013731;28;20037;-76
2022/08/30 11:45:24;;;;;;;10.40;5.78;;;23.00;64.00;;;;;;5014648;28;20066;-76
2022/08/30 11:47:53;;;;;;;10.48;4.82;;;23.00;64.50;;;;;;5014400;28;20036;-77
2022/08/30 11:50:32;;;;;;;7.90;4.30;;;23.00;64.40;;;;;;4996949;28;20033;-75
2022/08/30 11:53:52;;;;;;;11.02;5.45;;;23.00;64.20;;;;;;5014430;28;20091;-76
2022/08/30 11:56:39;;;;;;;9.88;4.85;;;23.00;64.60;;;;;;4972934;28;20391;-77
2022/08/30 11:59:37;;;;;;;8.15;4.43;;;23.00;64.60;;;;;;4972619;28;20031;-77
2022/08/30 12:02:03;;;;;;;7.38;4.07;;;23.00;64.10;;;;;;5006721;28;20120;-76
2022/08/30 12:04:45;;;;;;;9.48;4.38;;;23.00;64.10;;;;;;4996637;28;20037;-76
2022/08/30 12:07:49;;;;;;;9.20;4.55;;;23.00;64.00;;;;;;5014160;28;20029;-76
2022/08/30 12:10:35;;;;;;;5.55;3.35;;;23.00;64.20;;;;;;4996357;28;20038;-76
2022/08/30 12:13:01;;;;;;;8.20;3.85;;;23.00;64.50;;;;;;5013948;28;20026;-76
2022/08/30 12:15:57;;;;;;;6.07;3.38;;;23.00;64.00;;;;;;4996548;28;20108;-76
2022/08/30 12:18:51;;;;;;;10.85;3.58;;;23.00;63.90;;;;;;5013666;28;20449;-76
2022/08/30 12:21:20;;;;;;;4.70;2.90;;;23.00;63.90;;;;;;5027775;28;20034;-76
2022/08/30 12:23:51;;;;;;;7.93;3.00;;;23.00;63.80;;;;;;4996361;28;20033;-76
2022/08/30 12:26:28;;;;;;;5.68;3.10;;;23.00;63.80;;;;;;5013908;28;20363;-75
2022/08/30 12:29:14;;;;;;;5.18;2.70;;;23.10;63.90;;;;;;5013408;28;20444;-76
2022/08/30 12:31:42;;;;;;;7.72;3.22;;;23.10;63.90;;;;;;4996287;28;20029;-76
2022/08/30 12:34:15;;;;;;;5.03;2.60;;;23.10;63.90;;;;;;5013719;28;20041;-76
2022/08/30 12:37:22;;;;;;;3.97;2.58;;;23.10;63.70;;;;;;5013649;28;20109;-76
2022/08/30 12:39:59;;;;;;;5.45;2.50;;;23.00;63.70;;;;;;5012951;28;20042;-77
2022/08/30 12:42:32;;;;;;;4.82;2.55;;;23.00;63.70;;;;;;5013475;28;20076;-76
2022/08/30 12:45:03;;;;;;;6.47;2.72;;;23.00;64.10;;;;;;5013292;28;20449;-77
2022/08/30 12:47:42;;;;;;;3.65;2.22;;;23.00;63.60;;;;;;5013435;28;20026;-77
2022/08/30 12:50:12;;;;;;;8.43;2.58;;;23.00;63.50;;;;;;5028381;28;20022;-78
2022/08/30 12:52:41;;;;;;;6.82;2.40;;;23.00;64.00;;;;;;5013273;28;20037;-77
2022/08/30 12:55:21;;;;;;;5.63;2.40;;;23.00;63.40;;;;;;5012209;28;20088;-77
2022/08/30 12:57:53;;;;;;;;;;;23.00;63.70;;;;;;5029137;28;20163;-77
2022/08/30 13:00:38;;;;;;;3.97;2.20;;;23.00;63.30;;;;;;5049556;22;20385;-72
2022/08/30 13:03:24;;;;;;;4.53;2.42;;;23.00;64.10;;;;;;5011918;28;20029;-72
2022/08/30 13:05:51;;;;;;;5.05;2.40;;;23.00;63.50;;;;;;5052685;28;20029;-72
2022/08/30 13:08:35;;;;;;;5.47;2.30;;;23.00;63.40;;;;;;5052780;28;20025;-72
2022/08/30 13:11:04;;;;;;;5.63;2.40;;;23.00;63.50;;;;;;5034728;28;20120;-72
2022/08/30 13:14:16;;;;;;;5.47;2.40;;;23.00;63.80;;;;;;5034392;28;20071;-72